Time;durP1;ratioP1;P1;durP2;ratioP2;P2;SDS_P1;SDS_P2;PMS_P1;PMS_P2;Temp;Humidity;BMP_temperature;BMP_pressure;BME280_temperature;BME280_humidity;BME280_pressure;Samples;Min_cycle;Max_cycle;Signal;HPM_P1;HPM_P2
2021/05/30 00:00:10;;;;;;;;;;;;;;;21.35;44.96;102664.78;2211212;39;113712;-53
2021/05/30 00:01:42;;;;;;;;;;;;;;;21.37;45.11;102661.72;2208017;39;113961;-53
2021/05/30 00:03:14;;;;;;;;;;;;;;;21.36;45.08;102663.66;2210237;39;113796;-52
2021/05/30 00:04:46;;;;;;;;;;;;;;;21.37;44.98;102664.53;2209805;39;113699;-54
2021/05/30 00:06:18;;;;;;;;;;;;;;;21.36;45.15;102660.84;2204909;39;113864;-53
2021/05/30 00:07:50;;;;;;;;;;;;;;;21.36;45.14;102669.28;2205170;39;113765;-52
2021/05/30 00:09:21;;;;;;;;;;;;;;;21.37;45.38;102664.53;2210196;39;113728;-53
2021/05/30 00:10:53;;;;;;;;;;;;;;;21.39;45.06;102662.28;2211194;39;113971;-52
2021/05/30 00:12:25;;;;;;;;;;;;;;;21.37;44.94;102664.53;2205907;39;114163;-53
2021/05/30 00:13:59;;;;;;;;;;;;;;;21.37;44.92;102664.53;2207604;39;113736;-53
2021/05/30 00:15:31;;;;;;;;;;;;;;;21.37;45.20;102676.63;2209610;39;115479;-52
2021/05/30 00:17:03;;;;;;;;;;;;;;;21.36;45.36;102674.06;2208374;39;114705;-53
2021/05/30 00:18:35;;;;;;;;;;;;;;;21.37;45.13;102668.19;2210125;39;115340;-53
2021/05/30 00:20:08;;;;;;;;;;;;;;;21.38;45.45;102663.41;2201957;39;114797;-53
2021/05/30 00:21:39;;;;;;;;;;;;;;;21.37;45.08;102668.19;2202977;39;113986;-53
2021/05/30 00:23:11;;;;;;;;;;;;;;;21.36;45.34;102666.47;2205779;39;114792;-52
2021/05/30 00:24:43;;;;;;;;;;;;;;;21.37;45.67;102662.56;2211011;39;115382;-54
2021/05/30 00:26:15;;;;;;;;;;;;;;;21.38;45.53;102663.41;2206571;39;113972;-53
2021/05/30 00:27:47;;;;;;;;;;;;;;;21.37;45.32;102664.53;2209758;39;114853;-54
2021/05/30 00:29:19;;;;;;;;;;;;;;;21.40;45.71;102663.97;2210401;39;115150;-52
2021/05/30 00:30:50;;;;;;;;;;;;;;;21.40;45.51;102667.63;2200696;39;114786;-53
2021/05/30 00:32:22;;;;;;;;;;;;;;;21.40;45.66;102663.97;2205528;39;114587;-53
2021/05/30 00:33:54;;;;;;;;;;;;;;;21.42;45.50;102667.38;2210009;39;114408;-52
2021/05/30 00:35:27;;;;;;;;;;;;;;;21.40;45.80;102664.81;2206644;39;113843;-54
2021/05/30 00:36:58;;;;;;;;;;;;;;;21.41;45.56;102662.84;2202262;39;115560;-53
2021/05/30 00:38:30;;;;;;;;;;;;;;;21.39;45.78;102659.47;2205909;39;115134;-53
2021/05/30 00:40:03;;;;;;;;;;;;;;;21.38;45.83;102663.41;2207430;39;115528;-52
2021/05/30 00:41:34;;;;;;;;;;;;;;;21.40;45.95;102670.44;2209873;39;114575;-52
2021/05/30 00:43:06;;;;;;;;;;;;;;;21.39;46.40;102662.28;2210168;39;114538;-53
2021/05/30 00:44:38;;;;;;;;;;;;;;;21.41;45.77;102666.50;2203238;39;115925;-53
2021/05/30 00:46:10;;;;;;;;;;;;;;;21.41;45.87;102672.13;2207229;39;116327;-52
2021/05/30 00:47:42;;;;;;;;;;;;;;;21.42;45.66;102668.22;2195675;39;114502;-52
2021/05/30 00:49:15;;;;;;;;;;;;;;;21.41;46.08;102665.66;2206490;39;115600;-52
2021/05/30 00:50:47;;;;;;;;;;;;;;;21.40;45.85;102666.78;2210409;39;115802;-54
2021/05/30 00:52:19;;;;;;;;;;;;;;;21.37;46.29;102661.72;2198694;39;115657;-53
2021/05/30 00:53:51;;;;;;;;;;;;;;;21.39;46.31;102665.97;2201768;39;114023;-56
2021/05/30 00:55:24;;;;;;;;;;;;;;;21.40;45.93;102670.44;2198247;39;115552;-53
2021/05/30 00:56:57;;;;;;;;;;;;;;;21.39;46.40;102662.28;2202742;39;116154;-52
2021/05/30 00:58:29;;;;;;;;;;;;;;;21.41;45.92;102662.84;2200602;39;115529;-53
2021/05/30 01:00:00;;;;;;;;;;;;;;;21.40;46.10;102659.19;2203757;39;114012;-53
2021/05/30 01:01:32;;;;;;;;;;;;;;;21.40;46.19;102662.00;2197598;39;113892;-53
2021/05/30 01:03:04;;;;;;;;;;;;;;;21.40;46.56;102664.81;2202893;39;113738;-52
2021/05/30 01:04:36;;;;;;;;;;;;;;;21.40;46.12;102663.97;2210966;39;113778;-52
2021/05/30 01:06:10;;;;;;;;;;;;;;;21.43;46.45;102663.44;2211177;39;114298;-52
2021/05/30 01:07:45;;;;;;;;;;;;;;;21.43;46.31;102667.09;2208685;39;113843;-52
2021/05/30 01:09:18;;;;;;;;;;;;;;;21.41;46.78;102660.88;2209974;39;113809;-52
2021/05/30 01:10:51;;;;;;;;;;;;;;;21.40;46.70;102663.97;2210736;39;114008;-53
2021/05/30 01:12:23;;;;;;;;;;;;;;;21.41;46.52;102660.88;2206657;39;113633;-53
2021/05/30 01:13:57;;;;;;;;;;;;;;;21.40;46.78;102655.53;2207382;39;113794;-52
2021/05/30 01:15:31;;;;;;;;;;;;;;;21.40;46.56;102658.34;2208621;39;113934;-53
2021/05/30 01:17:06;;;;;;;;;;;;;;;21.40;46.57;102656.38;2205552;39;114946;-52
2021/05/30 01:18:38;;;;;;;;;;;;;;;21.41;47.05;102660.03;2206317;39;113748;-53
2021/05/30 01:20:12;;;;;;;;;;;;;;;21.41;46.71;102660.88;2208811;39;114139;-53
2021/05/30 01:21:44;;;;;;;;;;;;;;;21.42;46.52;102661.75;2197552;39;114599;-53
2021/05/30 01:23:18;;;;;;;;;;;;;;;21.42;46.85;102662.59;2197551;39;113872;-53
2021/05/30 01:24:50;;;;;;;;;;;;;;;21.41;47.11;102662.84;2195938;39;115473;-53
2021/05/30 01:26:22;;;;;;;;;;;;;;;21.41;47.09;102671.28;2206970;39;115577;-52
2021/05/30 01:27:54;;;;;;;;;;;;;;;21.40;47.02;102659.19;2202779;39;114774;-53
2021/05/30 01:29:26;;;;;;;;;;;;;;;21.41;46.99;102662.84;2200136;39;114869;-53
2021/05/30 01:30:57;;;;;;;;;;;;;;;21.40;47.31;102662.00;2200070;39;114785;-53
2021/05/30 01:32:29;;;;;;;;;;;;;;;21.41;47.37;102660.03;2211555;39;115003;-53
2021/05/30 01:34:01;;;;;;;;;;;;;;;21.39;47.45;102662.28;2203317;39;114871;-52
2021/05/30 01:35:33;;;;;;;;;;;;;;;21.40;47.16;102663.97;2200774;39;114453;-52
2021/05/30 01:37:05;;;;;;;;;;;;;;;21.40;47.50;102666.78;2200068;39;114291;-52
2021/05/30 01:38:37;;;;;;;;;;;;;;;21.42;47.08;102656.13;2203277;39;115252;-52
2021/05/30 01:40:10;;;;;;;;;;;;;;;21.41;47.37;102663.69;2200522;39;114393;-53
2021/05/30 01:41:41;;;;;;;;;;;;;;;21.41;47.86;102660.03;2207133;39;113922;-54
2021/05/30 01:43:13;;;;;;;;;;;;;;;21.44;47.31;102663.16;2203691;39;115485;-53
2021/05/30 01:44:45;;;;;;;;;;;;;;;21.44;47.51;102663.16;2204060;39;115650;-53
2021/05/30 01:46:17;;;;;;;;;;;;;;;21.41;48.01;102669.31;2202778;39;115428;-53
2021/05/30 01:47:49;;;;;;;;;;;;;;;21.42;47.59;102656.97;2205885;39;115524;-54
2021/05/30 01:49:21;;;;;;;;;;;;;;;21.42;47.95;102661.75;2200164;39;115414;-51
2021/05/30 01:50:53;;;;;;;;;;;;;;;21.41;47.98;102663.69;2203660;39;115524;-53
2021/05/30 01:52:24;;;;;;;;;;;;;;;21.42;47.81;102668.22;2201805;39;115469;-54
2021/05/30 01:57:09;;;;;;;;;;;;;;;21.42;47.59;102656.97;2209556;39;114505;-53
2021/05/30 01:58:43;;;;;;;;;;;;;;;21.41;47.94;102660.88;2199229;39;115480;-56
2021/05/30 02:00:16;;;;;;;;;;;;;;;21.41;47.89;102665.66;2200241;39;116294;-52
2021/05/30 02:01:50;;;;;;;;;;;;;;;21.41;47.98;102658.06;2198541;39;115755;-53
2021/05/30 02:03:23;;;;;;;;;;;;;;;21.42;47.96;102651.34;2199575;39;115506;-53
2021/05/30 02:04:54;;;;;;;;;;;;;;;21.43;47.79;102647.41;2199054;39;113579;-53
2021/05/30 02:06:27;;;;;;;;;;;;;;;21.43;48.03;102649.38;2201077;39;113784;-52
2021/05/30 02:07:59;;;;;;;;;;;;;;;21.44;47.99;102648.25;2200177;39;114035;-53
2021/05/30 02:09:31;;;;;;;;;;;;;;;21.44;48.27;102651.09;2202042;39;114030;-54
2021/05/30 02:11:06;;;;;;;;;;;;;;;21.44;48.24;102648.25;2206215;39;113651;-53
2021/05/30 02:12:39;;;;;;;;;;;;;;;21.43;48.26;102653.03;2199343;39;114018;-53
2021/05/30 02:14:13;;;;;;;;;;;;;;;21.44;48.13;102651.91;2198443;39;113994;-53
2021/05/30 02:15:45;;;;;;;;;;;;;;;21.42;47.92;102648.53;2200634;39;113858;-52
2021/05/30 02:17:19;;;;;;;;;;;;;;;21.42;47.95;102648.53;2197722;39;113815;-53
2021/05/30 02:18:50;;;;;;;;;;;;;;;21.42;47.96;102651.34;2196965;39;114117;-55
2021/05/30 02:20:25;;;;;;;;;;;;;;;21.42;47.96;102654.16;2197542;39;113878;-53
2021/05/30 02:21:58;;;;;;;;;;;;;;;21.42;47.94;102648.53;2204067;39;113850;-53
2021/05/30 02:23:31;;;;;;;;;;;;;;;21.41;48.02;102654.41;2202961;39;113773;-53
2021/05/30 02:25:04;;;;;;;;;;;;;;;21.40;47.97;102652.72;2206220;39;114188;-52
2021/05/30 02:26:36;;;;;;;;;;;;;;;21.43;47.93;102655.84;2212053;39;113910;-53
2021/05/30 02:28:08;;;;;;;;;;;;;;;21.42;48.28;102653.31;2206289;39;114856;-52
2021/05/30 02:29:42;;;;;;;;;;;;;;;21.42;47.82;102651.34;2204372;39;114994;-53
2021/05/30 02:31:14;;;;;;;;;;;;;;;21.41;48.12;102655.25;2202496;39;114865;-53
2021/05/30 02:32:46;;;;;;;;;;;;;;;21.42;47.76;102661.75;2205940;39;114829;-53
2021/05/30 02:34:18;;;;;;;;;;;;;;;21.41;48.05;102654.41;2198847;39;115314;-52
2021/05/30 02:35:50;;;;;;;;;;;;;;;21.41;48.47;102657.22;2203364;39;113919;-53
2021/05/30 02:37:22;;;;;;;;;;;;;;;21.41;47.86;102665.66;2209206;39;114156;-52
2021/05/30 02:38:54;;;;;;;;;;;;;;;21.44;47.97;102667.94;2208144;39;114828;-53
2021/05/30 02:40:26;;;;;;;;;;;;;;;21.43;48.20;102660.63;2213134;39;114741;-53
2021/05/30 02:41:58;;;;;;;;;;;;;;;21.43;47.92;102653.03;2204593;39;114816;-52
2021/05/30 02:43:29;;;;;;;;;;;;;;;21.43;47.67;102666.25;2202797;39;114798;-54
2021/05/30 02:45:02;;;;;;;;;;;;;;;21.43;47.71;102664.28;2204928;39;114827;-52
2021/05/30 02:46:34;;;;;;;;;;;;;;;21.43;48.15;102669.06;2211940;39;115166;-52
2021/05/30 02:48:06;;;;;;;;;;;;;;;21.42;48.02;102667.38;2206813;39;114931;-52
2021/05/30 02:49:38;;;;;;;;;;;;;;;21.43;48.02;102661.47;2205581;39;116137;-53
2021/05/30 02:51:10;;;;;;;;;;;;;;;21.43;48.19;102669.91;2211211;39;115673;-53
2021/05/30 02:52:42;;;;;;;;;;;;;;;21.43;47.79;102669.91;2200154;39;115906;-53
2021/05/30 02:54:14;;;;;;;;;;;;;;;21.45;48.18;102664.00;2203759;39;114544;-52
2021/05/30 02:55:45;;;;;;;;;;;;;;;21.45;48.13;102670.47;2209297;39;115482;-52
2021/05/30 02:57:17;;;;;;;;;;;;;;;21.41;48.35;102665.66;2204089;39;115934;-54
2021/05/30 02:58:49;;;;;;;;;;;;;;;21.42;48.08;102668.22;2207977;39;115488;-53
2021/05/30 03:00:21;;;;;;;;;;;;;;;21.42;47.82;102671.03;2203046;39;115947;-52
2021/05/30 03:01:53;;;;;;;;;;;;;;;21.41;48.21;102669.31;2205615;39;115435;-53
2021/05/30 03:03:25;;;;;;;;;;;;;;;21.41;47.87;102665.66;2210037;39;115582;-52
2021/05/30 03:04:57;;;;;;;;;;;;;;;21.40;48.32;102664.81;2209169;39;115605;-55
2021/05/30 03:06:28;;;;;;;;;;;;;;;21.42;48.10;102664.56;2208469;39;115787;-53
2021/05/30 03:08:01;;;;;;;;;;;;;;;21.42;48.29;102667.38;2208133;39;115422;-53
2021/05/30 03:09:32;;;;;;;;;;;;;;;21.40;48.19;102666.78;2216041;39;115521;-53
2021/05/30 03:11:04;;;;;;;;;;;;;;;21.41;48.22;102666.50;2212672;39;113958;-52
2021/05/30 03:12:36;;;;;;;;;;;;;;;21.40;48.25;102658.34;2210316;39;114094;-53
2021/05/30 03:14:08;;;;;;;;;;;;;;;21.40;48.13;102664.81;2209788;39;113780;-53
2021/05/30 03:15:40;;;;;;;;;;;;;;;21.41;48.01;102654.41;2210885;39;113821;-53
2021/05/30 03:17:12;;;;;;;;;;;;;;;21.42;48.36;102658.94;2213307;39;114245;-54
2021/05/30 03:18:43;;;;;;;;;;;;;;;21.42;47.92;102668.22;2210892;39;113730;-53
2021/05/30 03:20:15;;;;;;;;;;;;;;;21.38;48.40;102667.06;2208801;39;113690;-53
2021/05/30 03:21:47;;;;;;;;;;;;;;;21.39;48.34;102657.53;2210618;39;114208;-53
2021/05/30 03:23:19;;;;;;;;;;;;;;;21.37;48.27;102667.34;2207090;39;113803;-53
2021/05/30 03:24:51;;;;;;;;;;;;;;;21.41;48.20;102662.84;2206828;39;114127;-53
2021/05/30 03:26:23;;;;;;;;;;;;;;;21.39;48.46;102670.72;2210699;39;114088;-53
2021/05/30 03:27:55;;;;;;;;;;;;;;;21.38;48.60;102667.06;2209425;39;113585;-53
2021/05/30 03:29:27;;;;;;;;;;;;;;;21.36;48.42;102663.66;2203560;39;113933;-53
2021/05/30 03:30:59;;;;;;;;;;;;;;;21.38;48.10;102661.44;2211461;39;113874;-52
2021/05/30 03:32:30;;;;;;;;;;;;;;;21.41;48.44;102671.28;2211746;39;114788;-53
2021/05/30 03:34:03;;;;;;;;;;;;;;;21.38;48.53;102667.06;2203764;39;114891;-53
2021/05/30 03:35:34;;;;;;;;;;;;;;;21.39;48.29;102670.72;2208405;39;115051;-53
2021/05/30 03:37:06;;;;;;;;;;;;;;;21.38;48.49;102667.06;2206881;39;115181;-52
2021/05/30 03:38:38;;;;;;;;;;;;;;;21.40;48.38;102670.44;2206784;39;114967;-53
2021/05/30 03:40:25;;;;;;;;;;;;;;;21.39;48.51;102673.53;2210075;39;115252;-54
2021/05/30 03:42:06;;;;;;;;;;;;;;;21.37;48.42;102667.34;2202389;39;114939;-53
2021/05/30 03:43:39;;;;;;;;;;;;;;;21.37;48.61;102670.16;2204253;39;114765;-53
2021/05/30 03:45:11;;;;;;;;;;;;;;;21.38;48.78;102664.25;2212106;39;114672;-52
2021/05/30 03:46:43;;;;;;;;;;;;;;;21.40;48.63;102670.44;2211597;39;115637;-53
2021/05/30 03:48:15;;;;;;;;;;;;;;;21.42;48.56;102673.00;2204787;39;114890;-53
2021/05/30 03:49:46;;;;;;;;;;;;;;;21.39;48.46;102668.78;2204069;39;114790;-53
2021/05/30 03:51:18;;;;;;;;;;;;;;;21.39;48.93;102676.34;2209082;39;115360;-53
2021/05/30 03:52:50;;;;;;;;;;;;;;;21.38;48.97;102663.41;2208384;39;114988;-53
2021/05/30 03:54:22;;;;;;;;;;;;;;;21.38;48.71;102674.66;2214219;39;115821;-52
2021/05/30 03:55:54;;;;;;;;;;;;;;;21.40;48.66;102669.59;2202404;39;116101;-53
2021/05/30 03:57:26;;;;;;;;;;;;;;;21.38;48.93;102672.69;2206174;39;115125;-53
2021/05/30 03:58:58;;;;;;;;;;;;;;;21.39;49.13;102668.78;2210015;39;115510;-53
2021/05/30 04:00:30;;;;;;;;;;;;;;;21.38;48.65;102663.41;2205877;39;115947;-53
2021/05/30 04:02:02;;;;;;;;;;;;;;;21.38;48.84;102666.22;2206238;39;115552;-53
2021/05/30 04:03:34;;;;;;;;;;;;;;;21.40;48.54;102664.81;2205109;39;115423;-53
2021/05/30 04:05:06;;;;;;;;;;;;;;;21.38;48.95;102669.88;2204353;39;115966;-53
2021/05/30 04:06:38;;;;;;;;;;;;;;;21.39;48.73;102663.16;2207600;39;115612;-52
2021/05/30 04:08:10;;;;;;;;;;;;;;;21.39;49.17;102670.72;2209599;39;115461;-53
2021/05/30 04:09:42;;;;;;;;;;;;;;;21.38;48.65;102667.06;2203612;39;115927;-53
2021/05/30 04:11:14;;;;;;;;;;;;;;;21.39;48.77;102663.16;2207445;39;115466;-52
2021/05/30 04:12:46;;;;;;;;;;;;;;;21.38;48.95;102661.44;2209645;39;115619;-53
2021/05/30 04:14:18;;;;;;;;;;;;;;;21.38;49.18;102666.22;2197823;39;115490;-53
2021/05/30 04:15:49;;;;;;;;;;;;;;;21.40;48.78;102662.00;2207701;39;115511;-53
2021/05/30 04:17:21;;;;;;;;;;;;;;;21.40;48.63;102664.81;2211020;39;113730;-53
2021/05/30 04:18:53;;;;;;;;;;;;;;;21.38;48.83;102667.06;2209985;39;113915;-53
2021/05/30 04:20:25;;;;;;;;;;;;;;;21.38;48.86;102663.41;2211321;39;114256;-53
2021/05/30 04:21:57;;;;;;;;;;;;;;;21.37;49.05;102664.53;2210182;39;113820;-53
2021/05/30 04:23:29;;;;;;;;;;;;;;;21.38;49.01;102674.66;2211110;39;113605;-53
2021/05/30 04:25:02;;;;;;;;;;;;;;;21.37;48.89;102665.38;2197250;39;113768;-53
2021/05/30 04:26:34;;;;;;;;;;;;;;;21.40;48.67;102667.63;2205190;39;114115;-53
2021/05/30 04:28:06;;;;;;;;;;;;;;;21.40;48.86;102669.59;2206589;39;113912;-53
2021/05/30 04:29:38;;;;;;;;;;;;;;;21.42;48.94;102670.19;2210981;39;113770;-53
2021/05/30 04:31:09;;;;;;;;;;;;;;;21.40;48.99;102673.25;2209578;39;113835;-52
2021/05/30 04:32:42;;;;;;;;;;;;;;;21.37;48.75;102667.34;2206480;39;114147;-52
2021/05/30 04:34:14;;;;;;;;;;;;;;;21.37;48.83;102673.81;2206353;39;117380;-53
2021/05/30 04:35:46;;;;;;;;;;;;;;;21.40;48.74;102672.41;2214189;39;113811;-54
2021/05/30 04:37:18;;;;;;;;;;;;;;;21.41;48.64;102672.13;2207819;39;114292;-53
2021/05/30 04:38:49;;;;;;;;;;;;;;;21.39;48.75;102668.78;2203560;39;114824;-54
2021/05/30 04:40:24;;;;;;;;;;;;;;;21.37;48.89;102670.16;2200341;39;115264;-53
2021/05/30 04:41:56;;;;;;;;;;;;;;;21.37;48.99;102667.34;2206156;39;114935;-53
2021/05/30 04:43:28;;;;;;;;;;;;;;;21.36;48.90;102663.66;2207647;39;115158;-52
2021/05/30 04:44:59;;;;;;;;;;;;;;;21.39;48.79;102663.16;2208181;39;115324;-53
2021/05/30 04:46:31;;;;;;;;;;;;;;;21.36;49.22;102660.00;2206351;39;114009;-53
2021/05/30 04:48:04;;;;;;;;;;;;;;;21.38;49.12;102661.44;2204517;39;114757;-53
2021/05/30 04:49:37;;;;;;;;;;;;;;;21.40;48.86;102663.97;2205688;39;114955;-53
2021/05/30 04:51:13;;;;;;;;;;;;;;;21.39;48.95;102667.91;2214822;39;114899;-53
2021/05/30 04:52:44;;;;;;;;;;;;;;;21.38;49.09;102666.22;2200869;39;114809;-53
2021/05/30 04:54:16;;;;;;;;;;;;;;;21.35;48.63;102664.78;2204736;39;114845;-53
2021/05/30 04:55:48;;;;;;;;;;;;;;;21.38;48.62;102661.44;2201512;39;115486;-53
2021/05/30 04:57:20;;;;;;;;;;;;;;;21.37;48.87;102665.38;2204160;39;114784;-53
2021/05/30 04:58:52;;;;;;;;;;;;;;;21.37;48.89;102661.72;2206186;39;115171;-53
2021/05/30 05:00:24;;;;;;;;;;;;;;;21.38;48.95;102669.03;2206288;39;115101;-53
2021/05/30 05:01:56;;;;;;;;;;;;;;;21.38;48.67;102674.66;2207277;39;115672;-53
2021/05/30 05:03:28;;;;;;;;;;;;;;;21.37;49.07;102664.53;2198129;39;115779;-53
2021/05/30 05:05:00;;;;;;;;;;;;;;;21.37;48.63;102671.00;2206361;39;115397;-53
2021/05/30 05:06:32;;;;;;;;;;;;;;;21.36;48.58;102668.44;2209592;39;115667;-53
2021/05/30 05:08:04;;;;;;;;;;;;;;;21.37;48.95;102676.63;2208853;39;115283;-53
2021/05/30 05:09:36;;;;;;;;;;;;;;;21.37;48.63;102673.81;2209193;39;115911;-53
2021/05/30 05:11:09;;;;;;;;;;;;;;;21.36;48.95;102677.72;2209467;39;115657;-53
2021/05/30 05:12:41;;;;;;;;;;;;;;;21.35;48.62;102669.59;2201808;39;115731;-53
2021/05/30 05:14:12;;;;;;;;;;;;;;;21.37;48.80;102684.19;2208135;39;116152;-53
2021/05/30 05:15:45;;;;;;;;;;;;;;;21.37;48.80;102676.63;2209951;39;115745;-53
2021/05/30 05:17:17;;;;;;;;;;;;;;;21.36;49.10;102676.88;2193518;39;114736;-52
2021/05/30 05:18:49;;;;;;;;;;;;;;;21.35;49.04;102680.84;2199200;39;115503;-53
2021/05/30 05:20:21;;;;;;;;;;;;;;;21.34;49.31;102681.94;2210387;39;115545;-53
2021/05/30 05:21:52;;;;;;;;;;;;;;;21.36;49.04;102679.69;2202668;39;116574;-52
2021/05/30 05:23:25;;;;;;;;;;;;;;;21.37;48.60;102681.38;2207624;39;113889;-53
2021/05/30 05:24:56;;;;;;;;;;;;;;;21.35;48.78;102678.84;2202337;39;115225;-54
2021/05/30 05:26:28;;;;;;;;;;;;;;;21.36;49.11;102686.16;2207380;39;113728;-53
2021/05/30 05:28:00;;;;;;;;;;;;;;;21.34;48.88;102682.78;2210607;39;113835;-53
2021/05/30 05:29:32;;;;;;;;;;;;;;;21.36;48.98;102688.13;2208558;39;113717;-53
2021/05/30 05:31:04;;;;;;;;;;;;;;;21.36;48.94;102686.16;2203331;39;114382;-53
2021/05/30 05:32:36;;;;;;;;;;;;;;;21.36;48.85;102685.31;2206427;39;113905;-53
2021/05/30 05:34:08;;;;;;;;;;;;;;;21.35;48.61;102692.09;2208937;39;113905;-53
2021/05/30 05:35:39;;;;;;;;;;;;;;;21.33;49.11;102686.72;2210846;39;114555;-53
2021/05/30 05:37:11;;;;;;;;;;;;;;;21.33;49.40;102694.31;2200819;39;114052;-53
2021/05/30 05:38:43;;;;;;;;;;;;;;;21.33;49.00;102689.53;2204405;39;113828;-53
2021/05/30 05:40:15;;;;;;;;;;;;;;;21.33;49.02;102694.31;2201257;39;114100;-52
2021/05/30 05:41:49;;;;;;;;;;;;;;;21.33;49.00;102688.69;2202337;39;113875;-52
2021/05/30 05:43:21;;;;;;;;;;;;;;;21.32;49.15;102696.25;2212705;39;115559;-53
2021/05/30 05:44:52;;;;;;;;;;;;;;;21.33;48.98;102697.97;2210088;39;115291;-53
2021/05/30 05:46:24;;;;;;;;;;;;;;;21.33;49.23;102691.50;2209200;39;115193;-53
2021/05/30 05:47:57;;;;;;;;;;;;;;;21.32;49.08;102696.25;2205222;39;115190;-53
2021/05/30 05:49:29;;;;;;;;;;;;;;;21.33;48.84;102697.13;2215182;39;115063;-53
2021/05/30 05:51:01;;;;;;;;;;;;;;;21.30;48.85;102688.09;2206505;39;114818;-53
2021/05/30 05:52:33;;;;;;;;;;;;;;;21.32;48.98;102699.06;2207718;39;114885;-53
2021/05/30 05:54:05;;;;;;;;;;;;;;;21.32;48.95;102689.78;2207562;39;114847;-53
2021/05/30 05:55:37;;;;;;;;;;;;;;;21.32;48.69;102695.41;2208970;39;115124;-52
2021/05/30 05:57:09;;;;;;;;;;;;;;;21.33;49.32;102697.13;2210800;39;113881;-52
2021/05/30 05:58:41;;;;;;;;;;;;;;;21.30;49.26;102696.53;2205241;39;114763;-52
2021/05/30 06:00:14;;;;;;;;;;;;;;;21.32;48.85;102693.44;2208392;39;114800;-52
2021/05/30 06:01:46;;;;;;;;;;;;;;;21.33;48.75;102694.31;2204529;39;115780;-53
2021/05/30 06:03:18;;;;;;;;;;;;;;;21.33;48.96;102692.34;2205630;39;115860;-53
2021/05/30 06:04:50;;;;;;;;;;;;;;;21.31;49.28;102694.56;2216538;39;114817;-52
2021/05/30 06:06:21;;;;;;;;;;;;;;;21.32;49.32;102698.22;2211967;39;115386;-53
2021/05/30 06:07:55;;;;;;;;;;;;;;;21.30;48.91;102696.53;2210867;39;114539;-53
2021/05/30 06:09:27;;;;;;;;;;;;;;;21.30;49.40;102702.16;2203440;39;115519;-52
2021/05/30 06:10:58;;;;;;;;;;;;;;;21.32;49.04;102701.88;2208841;39;115443;-53
2021/05/30 06:12:30;;;;;;;;;;;;;;;21.30;48.95;102704.97;2204078;39;116388;-54
2021/05/30 06:14:02;;;;;;;;;;;;;;;21.29;49.19;102700.47;2208974;39;115473;-52
2021/05/30 06:15:35;;;;;;;;;;;;;;;21.30;49.34;102707.78;2206424;39;114521;-53
2021/05/30 06:17:07;;;;;;;;;;;;;;;21.30;49.68;102698.53;2204369;39;115823;-53
2021/05/30 06:18:39;;;;;;;;;;;;;;;21.33;49.30;102700.78;2209422;39;115428;-52
2021/05/30 06:20:11;;;;;;;;;;;;;;;21.38;49.79;102706.44;2210689;39;115988;-53
2021/05/30 06:21:43;;;;;;;;;;;;;;;21.42;50.00;102701.97;2209664;39;114513;-53
2021/05/30 06:23:15;;;;;;;;;;;;;;;21.43;50.21;102708.44;2210184;39;115509;-53
2021/05/30 06:24:47;;;;;;;;;;;;;;;21.46;49.90;102703.09;2209489;39;114553;-53
2021/05/30 06:26:18;;;;;;;;;;;;;;;21.51;49.53;102702.28;2212906;39;115441;-52
2021/05/30 06:27:50;;;;;;;;;;;;;;;21.54;49.58;102711.03;2200902;39;114012;-53
2021/05/30 06:29:22;;;;;;;;;;;;;;;21.60;49.52;102709.94;2204100;39;114068;-52
2021/05/30 06:30:54;;;;;;;;;;;;;;;21.60;49.46;102709.94;2209080;39;113848;-53
2021/05/30 06:32:26;;;;;;;;;;;;;;;21.63;49.37;102717.81;2206984;39;113649;-52
2021/05/30 06:33:58;;;;;;;;;;;;;;;21.65;48.85;102707.16;2207522;39;114138;-53
2021/05/30 06:35:31;;;;;;;;;;;;;;;21.68;48.55;102717.00;2203296;39;113790;-53
2021/05/30 06:37:03;;;;;;;;;;;;;;;21.71;48.06;102716.47;2199852;39;113871;-53
2021/05/30 06:38:35;;;;;;;;;;;;;;;21.74;48.04;102713.09;2204371;39;113780;-53
2021/05/30 06:40:07;;;;;;;;;;;;;;;21.77;47.64;102709.75;2207661;39;113798;-53
2021/05/30 06:41:39;;;;;;;;;;;;;;;21.79;47.16;102707.50;2205786;39;113797;-53
2021/05/30 06:43:12;;;;;;;;;;;;;;;21.84;46.50;102709.50;2200202;39;114261;-54
2021/05/30 06:44:44;;;;;;;;;;;;;;;21.87;46.90;102711.75;2209188;39;113736;-53
2021/05/30 06:46:16;;;;;;;;;;;;;;;21.91;46.20;102708.13;2208353;39;113724;-53
2021/05/30 06:47:47;;;;;;;;;;;;;;;21.95;45.86;102714.06;2210113;39;113662;-53
2021/05/30 06:49:19;;;;;;;;;;;;;;;21.98;45.51;102713.53;2207145;39;114855;-52
2021/05/30 06:52:26;;;;;;;;;;;;;;;22.03;45.18;102717.19;2202656;39;114896;-53
2021/05/30 06:54:02;;;;;;;;;;;;;;;22.08;45.06;102705.09;2205372;39;115090;-53
2021/05/30 06:55:34;;;;;;;;;;;;;;;22.11;44.75;102704.56;2206250;39;115283;-53
2021/05/30 06:57:06;;;;;;;;;;;;;;;22.12;44.71;102709.91;2209553;39;115061;-53
2021/05/30 06:58:38;;;;;;;;;;;;;;;22.17;44.42;102711.88;2209059;39;115063;-53
2021/05/30 07:00:11;;;;;;;;;;;;;;;22.21;43.95;102715.03;2208988;39;115177;-53
2021/05/30 07:01:47;;;;;;;;;;;;;;;22.25;43.80;102704.91;2204983;39;115178;-53
2021/05/30 07:03:19;;;;;;;;;;;;;;;22.26;43.84;102707.41;2207102;39;115418;-52
2021/05/30 07:04:50;;;;;;;;;;;;;;;22.31;43.46;102700.94;2208349;39;114805;-53
2021/05/30 07:06:22;;;;;;;;;;;;;;;22.32;43.49;102695.06;2210707;39;114853;-52
2021/05/30 07:07:54;;;;;;;;;;;;;;;22.35;43.70;102702.13;2208140;39;114833;-53
2021/05/30 07:09:26;;;;;;;;;;;;;;;22.38;43.24;102707.19;2214141;39;114796;-53
2021/05/30 07:10:58;;;;;;;;;;;;;;;22.40;43.25;102691.69;2203225;39;115546;-52
2021/05/30 07:12:29;;;;;;;;;;;;;;;22.43;43.07;102696.78;2206090;39;114836;-52
2021/05/30 07:14:02;;;;;;;;;;;;;;;22.47;42.92;102702.69;2206786;39;115750;-53
2021/05/30 07:15:34;;;;;;;;;;;;;;;22.49;42.54;102701.28;2208566;39;115592;-54
2021/05/30 07:17:06;;;;;;;;;;;;;;;22.53;42.60;102710.03;2207473;39;115488;-53
2021/05/30 07:18:39;;;;;;;;;;;;;;;22.57;42.51;102699.91;2210581;39;116391;-53
2021/05/30 07:20:11;;;;;;;;;;;;;;;22.58;42.35;102707.19;2208505;39;115551;-53
2021/05/30 07:21:43;;;;;;;;;;;;;;;22.60;42.37;102703.00;2208987;39;115953;-53
2021/05/30 07:23:15;;;;;;;;;;;;;;;22.65;42.14;102706.94;2208745;39;115558;-53
2021/05/30 07:24:47;;;;;;;;;;;;;;;22.67;41.99;102705.50;2203534;39;116177;-54
2021/05/30 07:26:19;;;;;;;;;;;;;;;22.70;42.29;102712.63;2211196;39;115738;-53
2021/05/30 07:27:51;;;;;;;;;;;;;;;22.74;42.61;102708.09;2209604;39;115573;-53
2021/05/30 07:29:23;;;;;;;;;;;;;;;22.78;42.22;102706.41;2199296;39;115504;-53
2021/05/30 07:30:55;;;;;;;;;;;;;;;22.80;43.02;102709.81;2204323;39;114565;-53
2021/05/30 07:32:28;;;;;;;;;;;;;;;22.84;42.70;102711.78;2211672;39;116292;-53
2021/05/30 07:34:00;;;;;;;;;;;;;;;22.86;43.02;102705.84;2206942;39;113717;-53
2021/05/30 07:35:32;;;;;;;;;;;;;;;22.88;43.03;102706.44;2203930;39;114030;-52
2021/05/30 07:37:04;;;;;;;;;;;;;;;22.92;43.31;102710.38;2204091;39;114010;-52
2021/05/30 07:38:36;;;;;;;;;;;;;;;22.96;43.24;102711.50;2204681;39;114093;-53
2021/05/30 07:40:09;;;;;;;;;;;;;;;22.98;43.18;102712.06;2205411;39;114283;-53
2021/05/30 07:41:40;;;;;;;;;;;;;;;23.00;43.44;102701.34;2197834;39;114121;-53
2021/05/30 07:43:13;;;;;;;;;;;;;;;23.00;43.55;102701.34;2205055;39;114201;-53
2021/05/30 07:44:45;;;;;;;;;;;;;;;23.03;43.45;102703.63;2205040;39;113822;-52
2021/05/30 07:46:16;;;;;;;;;;;;;;;23.05;43.89;102706.97;2205267;39;114131;-52
2021/05/30 07:47:49;;;;;;;;;;;;;;;23.06;43.67;102703.03;2204634;39;113721;-53
2021/05/30 07:49:21;;;;;;;;;;;;;;;23.09;43.69;102715.72;2205914;39;113853;-52
2021/05/30 07:50:53;;;;;;;;;;;;;;;23.10;43.72;102708.94;2206028;39;113600;-53
2021/05/30 07:52:24;;;;;;;;;;;;;;;23.11;43.67;102708.69;2206417;39;114189;-52